Time;durP1;ratioP1;P1;durP2;ratioP2;P2;SDS_P1;SDS_P2;PMS_P1;PMS_P2;Temp;Humidity;BMP_temperature;BMP_pressure;BME280_temperature;BME280_humidity;BME280_pressure;Samples;Min_cycle;Max_cycle;Signal;HPM_P1;HPM_P2
2022/10/29 00:01:27;;;;;;;16.13;4.22;;;14.20;99.90;;;;;;7406674;19;19929;-89
2022/10/29 00:03:58;;;;;;;24.40;5.65;;;14.20;99.90;;;;;;7406114;19;19911;-90
2022/10/29 00:06:27;;;;;;;18.63;5.40;;;14.20;99.90;;;;;;7405903;19;19935;-90
2022/10/29 00:08:56;;;;;;;18.15;6.50;;;14.10;99.90;;;;;;7406117;19;19925;-90
2022/10/29 00:11:25;;;;;;;19.15;5.53;;;14.10;99.90;;;;;;7406141;19;19922;-90
2022/10/29 00:13:56;;;;;;;30.00;6.97;;;14.00;99.90;;;;;;7406161;19;19915;-91
2022/10/29 00:16:28;;;;;;;22.13;6.40;;;14.10;99.90;;;;;;7406362;19;19975;-89
2022/10/29 00:18:59;;;;;;;25.02;7.03;;;14.00;99.90;;;;;;7406006;19;19942;-90
2022/10/29 00:21:29;;;;;;;24.08;6.80;;;13.90;99.90;;;;;;7405708;19;19919;-89
2022/10/29 00:23:59;;;;;;;22.17;5.30;;;14.00;99.90;;;;;;7405377;19;19923;-89
2022/10/29 00:26:31;;;;;;;16.50;4.80;;;14.00;99.90;;;;;;7405008;19;20340;-90
2022/10/29 00:29:00;;;;;;;19.10;4.85;;;14.00;99.90;;;;;;7405175;19;19915;-90
2022/10/29 00:31:29;;;;;;;18.67;6.13;;;14.10;99.90;;;;;;7405563;19;20272;-90
2022/10/29 00:34:01;;;;;;;18.55;4.25;;;14.10;99.90;;;;;;7404047;19;19918;-90
2022/10/29 00:36:31;;;;;;;21.10;6.07;;;14.00;99.90;;;;;;7405246;19;19918;-90
2022/10/29 00:39:00;;;;;;;20.40;5.72;;;14.00;99.90;;;;;;7407041;19;19928;-90
2022/10/29 00:41:31;;;;;;;23.88;6.68;;;13.90;99.90;;;;;;7405022;19;19973;-91
2022/10/29 00:44:27;;;;;;;23.45;6.20;;;13.90;99.90;;;;;;7404438;19;19911;-90
2022/10/29 00:46:59;;;;;;;23.88;6.68;;;13.80;99.90;;;;;;7404942;19;19928;-90
2022/10/29 00:49:33;;;;;;;22.70;6.05;;;13.80;99.90;;;;;;7404639;19;19927;-89
2022/10/29 00:52:04;;;;;;;27.75;7.22;;;13.80;99.90;;;;;;7403326;19;19919;-90
2022/10/29 00:54:35;;;;;;;22.70;6.80;;;13.70;99.90;;;;;;7403785;19;19925;-90
2022/10/29 00:57:09;;;;;;;20.25;6.43;;;13.70;99.90;;;;;;7404815;19;19919;-90
2022/10/29 00:59:38;;;;;;;29.73;6.30;;;13.60;99.90;;;;;;7405377;19;19915;-89
2022/10/29 01:02:07;;;;;;;24.63;6.30;;;13.60;99.90;;;;;;7404936;19;19915;-90
2022/10/29 01:04:40;;;;;;;20.70;7.13;;;13.60;99.90;;;;;;7404125;19;19974;-90
2022/10/29 01:07:11;;;;;;;23.42;7.45;;;13.50;99.90;;;;;;7404515;19;19918;-90
2022/10/29 01:09:40;;;;;;;21.17;8.00;;;13.40;99.90;;;;;;7404350;19;19918;-90
2022/10/29 01:12:29;;;;;;;23.02;7.07;;;13.40;99.90;;;;;;7404555;19;19967;-90
2022/10/29 01:15:08;;;;;;;22.38;7.28;;;13.40;99.90;;;;;;7402373;19;20350;-90
2022/10/29 01:17:49;;;;;;;24.25;6.80;;;13.40;99.90;;;;;;7403912;19;20269;-89
2022/10/29 01:20:56;;;;;;;25.65;8.40;;;13.30;99.90;;;;;;7404173;19;19914;-90
2022/10/29 01:24:07;;;;;;;20.98;8.20;;;13.30;99.90;;;;;;7404216;19;19988;-90
2022/10/29 01:27:21;;;;;;;32.63;7.85;;;13.20;99.90;;;;;;7403472;19;19918;-90
2022/10/29 01:30:07;;;;;;;22.08;5.80;;;13.20;99.90;;;;;;7403368;19;19974;-90
2022/10/29 01:32:49;;;;;;;20.63;5.85;;;13.20;99.90;;;;;;7403543;19;19922;-90
2022/10/29 01:35:25;;;;;;;22.38;6.47;;;13.10;99.90;;;;;;7402038;19;19966;-89
2022/10/29 01:38:06;;;;;;;20.60;5.15;;;13.10;99.90;;;;;;7405715;19;19950;-90
2022/10/29 01:40:40;;;;;;;20.75;6.55;;;13.10;99.90;;;;;;7411794;19;19939;-90
2022/10/29 01:43:15;;;;;;;14.55;6.43;;;13.00;99.90;;;;;;7411953;19;19921;-89
2022/10/29 01:45:48;;;;;;;17.58;6.07;;;13.00;99.90;;;;;;7411030;19;19925;-91
2022/10/29 01:48:26;;;;;;;29.00;7.78;;;12.90;99.90;;;;;;7407796;19;19930;-89
2022/10/29 01:50:59;;;;;;;17.65;6.20;;;12.90;99.90;;;;;;7408887;19;19918;-90
2022/10/29 01:53:31;;;;;;;19.33;5.00;;;12.90;99.90;;;;;;7409827;19;19927;-90
2022/10/29 01:56:00;;;;;;;15.35;5.63;;;12.80;99.90;;;;;;7407157;19;19974;-90
2022/10/29 01:58:29;;;;;;;;;;;12.80;99.90;;;;;;7412171;19;19923;-90
2022/10/29 02:01:08;;;;;;;19.70;5.20;;;12.70;99.90;;;;;;7409536;19;19926;-92
2022/10/29 02:03:50;;;;;;;21.90;6.10;;;12.70;99.90;;;;;;7409546;19;19918;-90
2022/10/29 02:06:29;;;;;;;17.48;5.05;;;12.70;99.90;;;;;;7409145;19;19906;-90
2022/10/29 02:09:05;;;;;;;15.55;5.82;;;12.60;99.90;;;;;;7410094;19;19919;-90
2022/10/29 02:11:39;;;;;;;15.88;6.00;;;12.60;99.90;;;;;;7409103;19;19918;-90
2022/10/29 02:14:13;;;;;;;13.70;5.22;;;12.50;99.90;;;;;;7408816;19;19937;-88
2022/10/29 02:16:43;;;;;;;18.70;5.50;;;12.50;99.90;;;;;;7408948;19;19918;-90
2022/10/29 02:19:14;;;;;;;12.82;4.65;;;12.40;99.90;;;;;;7409248;19;19914;-90
2022/10/29 02:21:44;;;;;;;12.68;3.60;;;12.30;99.90;;;;;;7407556;19;20332;-91
2022/10/29 02:24:13;;;;;;;10.77;4.25;;;12.20;99.90;;;;;;7409059;19;19919;-90
2022/10/29 02:26:41;;;;;;;11.35;2.67;;;12.20;99.90;;;;;;7409229;19;19919;-89
2022/10/29 02:29:10;;;;;;;9.52;3.30;;;12.10;99.90;;;;;;7408920;19;19921;-90
2022/10/29 02:31:39;;;;;;;11.57;3.13;;;12.00;99.90;;;;;;7409108;19;19910;-90
2022/10/29 02:34:08;;;;;;;18.42;2.90;;;12.00;99.90;;;;;;7406240;19;20337;-90
2022/10/29 02:36:40;;;;;;;40.92;4.40;;;11.90;99.90;;;;;;7411371;19;20355;-91
2022/10/29 02:39:08;;;;;;;39.58;3.88;;;11.90;99.90;;;;;;7408732;19;19978;-90
2022/10/29 02:41:37;;;;;;;45.70;5.03;;;11.80;99.90;;;;;;7408364;19;19921;-90
2022/10/29 02:44:06;;;;;;;22.48;3.40;;;11.90;99.90;;;;;;7408030;19;19915;-90
2022/10/29 02:46:38;;;;;;;15.10;3.03;;;11.80;99.90;;;;;;7408423;19;19914;-90
2022/10/29 02:49:07;;;;;;;11.70;2.60;;;11.80;99.90;;;;;;7408530;19;19951;-90
2022/10/29 02:51:39;;;;;;;24.83;3.80;;;11.80;99.90;;;;;;7403612;19;19986;-90
2022/10/29 02:54:07;;;;;;;12.50;2.78;;;11.70;99.90;;;;;;7408209;19;19922;-90
2022/10/29 02:56:36;;;;;;;16.98;3.47;;;11.80;99.90;;;;;;7405531;19;19918;-90
2022/10/29 02:59:06;;;;;;;27.20;3.53;;;11.70;99.90;;;;;;7407883;19;19922;-90
2022/10/29 03:01:35;;;;;;;12.05;3.42;;;11.70;99.90;;;;;;7407804;19;19923;-91
2022/10/29 03:04:04;;;;;;;15.35;3.38;;;11.80;99.90;;;;;;7407873;19;20358;-90
2022/10/29 03:06:33;;;;;;;23.98;3.75;;;11.70;99.90;;;;;;7406193;19;19919;-90
2022/10/29 03:09:04;;;;;;;13.18;2.95;;;11.70;99.90;;;;;;7408150;19;20251;-90
2022/10/29 03:11:34;;;;;;;15.35;2.97;;;11.70;99.90;;;;;;7409898;19;19919;-89
2022/10/29 03:14:03;;;;;;;22.90;3.53;;;11.70;99.90;;;;;;7408318;19;19911;-90
2022/10/29 03:16:32;;;;;;;21.17;3.28;;;11.70;99.90;;;;;;7405405;19;19922;-90
2022/10/29 03:19:00;;;;;;;31.08;3.75;;;11.70;99.90;;;;;;7407522;19;19919;-90
2022/10/29 03:21:29;;;;;;;16.33;3.58;;;11.70;99.90;;;;;;7408193;19;19919;-90
2022/10/29 03:23:58;;;;;;;32.00;4.22;;;11.70;99.90;;;;;;7407247;19;19914;-90
2022/10/29 03:26:30;;;;;;;36.65;3.38;;;11.70;99.90;;;;;;7407046;19;19925;-90
2022/10/29 03:28:59;;;;;;;28.83;3.47;;;11.70;99.90;;;;;;7407289;19;20260;-90
2022/10/29 03:31:28;;;;;;;19.02;3.55;;;11.70;99.90;;;;;;7407043;19;19915;-90
2022/10/29 03:33:56;;;;;;;50.65;4.10;;;11.70;99.90;;;;;;7405119;19;19910;-90
2022/10/29 03:36:26;;;;;;;42.05;4.38;;;11.70;99.90;;;;;;7405110;19;19929;-90
2022/10/29 03:38:55;;;;;;;29.95;3.60;;;11.70;99.90;;;;;;7407060;19;19919;-91
2022/10/29 03:41:24;;;;;;;62.00;5.20;;;11.70;99.90;;;;;;7406840;19;19921;-89
2022/10/29 03:43:55;;;;;;;30.75;3.70;;;11.70;99.90;;;;;;7407237;19;19918;-89
2022/10/29 03:49:51;;;;;;;22.23;2.55;;;11.70;99.90;;;;;;7403478;19;19943;-90
2022/10/29 03:52:20;;;;;;;27.98;4.03;;;11.70;99.90;;;;;;7400570;19;19929;-89
2022/10/29 03:54:48;;;;;;;22.40;2.30;;;11.70;99.90;;;;;;7410786;19;19918;-90
2022/10/29 03:57:17;;;;;;;26.08;2.83;;;11.70;99.90;;;;;;7406244;19;19915;-90
2022/10/29 03:59:50;;;;;;;30.27;2.97;;;11.70;99.90;;;;;;7407759;19;20377;-89
2022/10/29 04:02:19;;;;;;;27.20;3.00;;;11.80;99.90;;;;;;7404823;19;20344;-89
2022/10/29 04:04:47;;;;;;;26.38;3.13;;;11.80;99.90;;;;;;7406105;19;19921;-90
2022/10/29 04:07:16;;;;;;;19.67;3.78;;;11.80;99.90;;;;;;7405873;19;19915;-90
2022/10/29 04:09:45;;;;;;;19.65;3.40;;;11.70;99.90;;;;;;7406511;19;19922;-89
2022/10/29 04:12:14;;;;;;;18.73;3.30;;;11.80;99.90;;;;;;7406348;19;19922;-90
2022/10/29 04:14:44;;;;;;;18.10;3.72;;;11.80;99.90;;;;;;7405603;19;19970;-90
2022/10/29 04:17:16;;;;;;;14.88;2.97;;;11.70;99.90;;;;;;7405924;19;19914;-89
2022/10/29 04:19:45;;;;;;;11.57;2.67;;;11.70;99.90;;;;;;7405305;19;19915;-90
2022/10/29 04:22:14;;;;;;;10.63;2.38;;;11.70;99.90;;;;;;7406340;19;19937;-89
2022/10/29 04:24:43;;;;;;;9.02;3.60;;;11.60;99.90;;;;;;7406100;19;19921;-90
2022/10/29 04:27:11;;;;;;;18.52;3.42;;;11.60;99.90;;;;;;7405442;19;20356;-89
2022/10/29 04:29:40;;;;;;;26.45;3.60;;;11.70;99.90;;;;;;7405326;19;20336;-90
2022/10/29 04:32:09;;;;;;;22.08;3.65;;;11.70;99.90;;;;;;7405231;19;19978;-90
2022/10/29 04:34:41;;;;;;;22.75;4.72;;;11.70;99.90;;;;;;7405790;19;19986;-89
2022/10/29 04:37:10;;;;;;;15.65;3.10;;;11.70;99.90;;;;;;7403351;19;19911;-90
2022/10/29 04:39:38;;;;;;;9.55;2.65;;;11.70;99.90;;;;;;7405459;19;20356;-89
2022/10/29 04:42:07;;;;;;;24.38;4.57;;;11.70;99.90;;;;;;7405361;19;19944;-90
2022/10/29 04:44:36;;;;;;;19.67;3.65;;;11.70;99.90;;;;;;7405133;19;19918;-89
2022/10/29 04:47:05;;;;;;;40.83;5.55;;;11.70;99.90;;;;;;7408843;19;19923;-89
2022/10/29 04:49:34;;;;;;;63.83;6.63;;;11.70;99.90;;;;;;7404948;19;19935;-89
2022/10/29 04:52:06;;;;;;;42.03;5.72;;;11.70;99.90;;;;;;7403866;19;19951;-89
2022/10/29 04:54:35;;;;;;;39.60;6.53;;;11.70;99.90;;;;;;7404655;19;19910;-89
2022/10/29 04:57:04;;;;;;;28.85;6.07;;;11.70;99.90;;;;;;7403523;19;19911;-89
2022/10/29 04:59:33;;;;;;;35.53;6.05;;;11.70;99.90;;;;;;7404024;19;20336;-89
2022/10/29 05:02:03;;;;;;;29.33;6.55;;;11.70;99.90;;;;;;7404963;19;19925;-88
2022/10/29 05:04:31;;;;;;;41.22;7.97;;;11.70;99.90;;;;;;7404603;19;19921;-90
2022/10/29 05:07:00;;;;;;;53.67;9.07;;;11.80;99.90;;;;;;7404383;19;19914;-89
2022/10/29 05:09:35;;;;;;;36.85;9.15;;;11.80;99.90;;;;;;7404128;19;19917;-90
2022/10/29 05:12:04;;;;;;;82.65;10.45;;;11.80;99.90;;;;;;7404480;19;19924;-89
2022/10/29 05:14:33;;;;;;;38.30;6.82;;;11.90;99.90;;;;;;7401804;19;19918;-89
2022/10/29 05:17:02;;;;;;;45.88;7.88;;;11.90;99.90;;;;;;7402730;19;20263;-89
2022/10/29 05:19:31;;;;;;;40.45;7.18;;;12.00;99.90;;;;;;7403953;19;19915;-90
2022/10/29 05:22:00;;;;;;;33.97;6.63;;;12.10;99.90;;;;;;7404173;19;20282;-89
2022/10/29 05:24:28;;;;;;;45.65;8.70;;;12.10;99.90;;;;;;7404123;19;19914;-88
2022/10/29 05:27:01;;;;;;;49.65;9.95;;;12.10;99.90;;;;;;7403497;19;20253;-90
2022/10/29 05:29:29;;;;;;;50.72;10.82;;;12.10;99.90;;;;;;7403561;19;19927;-89
2022/10/29 05:31:58;;;;;;;53.28;10.48;;;12.10;99.90;;;;;;7403135;19;19922;-91
2022/10/29 05:34:27;;;;;;;77.50;12.32;;;12.10;99.90;;;;;;7402087;19;19929;-89
2022/10/29 05:36:56;;;;;;;63.47;9.75;;;12.20;99.90;;;;;;7401549;19;20225;-89
2022/10/29 05:39:25;;;;;;;83.75;11.90;;;12.20;99.90;;;;;;7403552;19;19983;-89
2022/10/29 05:41:54;;;;;;;45.63;11.43;;;12.20;99.90;;;;;;7402972;19;19955;-89
2022/10/29 05:44:25;;;;;;;80.43;12.65;;;12.30;99.90;;;;;;7404689;19;20236;-90
2022/10/29 05:46:54;;;;;;;81.18;12.93;;;12.30;99.90;;;;;;7402918;19;19918;-90
2022/10/29 05:49:23;;;;;;;58.47;11.57;;;12.30;99.90;;;;;;7402376;19;20338;-90
2022/10/29 05:51:52;;;;;;;68.78;12.27;;;12.30;99.90;;;;;;7400105;19;20008;-90
2022/10/29 05:54:21;;;;;;;44.65;11.63;;;12.30;99.90;;;;;;7403044;19;19918;-90
2022/10/29 05:56:51;;;;;;;100.53;15.63;;;12.40;99.90;;;;;;7401492;19;19914;-89
2022/10/29 05:59:20;;;;;;;82.70;13.77;;;12.40;99.90;;;;;;7402283;19;19991;-89
2022/10/29 06:01:51;;;;;;;57.85;10.95;;;12.30;99.90;;;;;;7400791;19;19926;-90
2022/10/29 06:04:21;;;;;;;47.17;10.40;;;12.30;99.90;;;;;;7402194;19;19982;-90
2022/10/29 06:06:50;;;;;;;62.15;12.98;;;12.30;99.90;;;;;;7402453;19;19915;-90
2022/10/29 06:09:19;;;;;;;140.75;21.33;;;12.40;99.90;;;;;;7402464;19;19918;-89
2022/10/29 06:11:47;;;;;;;49.53;10.38;;;12.40;99.90;;;;;;7402592;19;20336;-90
2022/10/29 06:14:17;;;;;;;60.83;12.35;;;12.40;99.90;;;;;;7402443;19;19926;-89
2022/10/29 06:16:46;;;;;;;33.67;10.15;;;12.50;99.90;;;;;;7400769;19;19978;-90
2022/10/29 06:19:18;;;;;;;125.28;18.25;;;12.50;99.90;;;;;;7402784;19;19939;-90
2022/10/29 06:21:47;;;;;;;77.18;14.90;;;12.50;99.90;;;;;;7402075;19;20020;-90
2022/10/29 06:24:16;;;;;;;56.47;13.80;;;12.60;99.90;;;;;;7401591;19;19911;-90
2022/10/29 06:26:44;;;;;;;104.13;16.90;;;12.70;99.90;;;;;;7408382;19;19921;-89
2022/10/29 06:29:13;;;;;;;89.20;17.60;;;12.70;99.90;;;;;;7408464;19;19981;-89
2022/10/29 06:31:42;;;;;;;129.40;21.10;;;12.60;99.90;;;;;;7408378;19;19922;-89
2022/10/29 06:34:12;;;;;;;70.15;17.35;;;12.70;99.90;;;;;;7406724;19;19929;-89
2022/10/29 06:36:43;;;;;;;114.45;19.80;;;12.70;99.90;;;;;;7407306;19;20333;-89
2022/10/29 06:39:12;;;;;;;51.92;13.63;;;12.70;99.90;;;;;;7408307;19;19923;-89
2022/10/29 06:41:41;;;;;;;79.18;17.10;;;12.70;99.90;;;;;;7408726;19;19940;-89
2022/10/29 06:44:10;;;;;;;57.28;13.02;;;12.80;99.90;;;;;;7411653;19;19906;-89
2022/10/29 06:46:40;;;;;;;51.15;13.15;;;12.80;99.90;;;;;;7408287;19;19907;-88
2022/10/29 06:49:09;;;;;;;113.60;21.40;;;12.80;99.90;;;;;;7407752;19;19939;-89
2022/10/29 06:51:38;;;;;;;44.65;14.13;;;12.80;99.90;;;;;;7407988;19;19918;-89
2022/10/29 06:54:09;;;;;;;46.25;13.48;;;12.80;99.90;;;;;;7407888;19;19914;-89
2022/10/29 06:56:38;;;;;;;95.63;19.90;;;12.90;99.90;;;;;;7406661;19;19925;-88
2022/10/29 06:59:07;;;;;;;95.95;19.48;;;12.90;99.90;;;;;;7407872;19;20248;-89
2022/10/29 07:01:36;;;;;;;63.50;14.73;;;12.90;99.90;;;;;;7407832;19;19924;-89
2022/10/29 07:04:05;;;;;;;103.40;18.23;;;12.90;99.90;;;;;;7407781;19;19914;-88
2022/10/29 07:06:35;;;;;;;;;;;12.90;99.90;;;;;;7410661;19;19921;-88
2022/10/29 07:09:04;;;;;;;99.22;17.73;;;12.90;99.90;;;;;;7407553;19;19914;-89
2022/10/29 07:11:36;;;;;;;119.82;17.50;;;13.00;99.90;;;;;;7407824;19;19915;-89
2022/10/29 07:14:07;;;;;;;93.15;15.18;;;13.00;99.90;;;;;;7407623;19;19914;-88
2022/10/29 07:16:36;;;;;;;104.13;16.45;;;13.00;99.90;;;;;;7406541;19;19922;-89
2022/10/29 07:19:06;;;;;;;64.63;13.80;;;13.00;99.90;;;;;;7406624;19;19911;-89
2022/10/29 07:21:34;;;;;;;;;;;13.10;99.90;;;;;;7409520;19;19925;-89
2022/10/29 07:24:03;;;;;;;179.48;20.67;;;13.10;99.90;;;;;;7407089;19;19919;-89
2022/10/29 07:26:32;;;;;;;40.60;10.32;;;13.10;99.90;;;;;;7405449;19;20315;-88
2022/10/29 07:29:04;;;;;;;85.28;16.23;;;13.10;99.90;;;;;;7406909;19;19918;-89
2022/10/29 07:31:33;;;;;;;82.00;14.50;;;13.20;99.90;;;;;;7406741;19;19917;-88
2022/10/29 07:34:02;;;;;;;97.68;16.30;;;13.20;99.90;;;;;;7405108;19;20371;-89
2022/10/29 07:36:32;;;;;;;93.20;15.68;;;13.20;99.90;;;;;;7403994;19;19919;-89
2022/10/29 07:39:02;;;;;;;66.50;14.50;;;13.20;99.90;;;;;;7407369;19;19907;-89
2022/10/29 07:41:31;;;;;;;101.45;15.48;;;13.20;99.90;;;;;;7407802;19;19923;-89
2022/10/29 07:44:03;;;;;;;85.15;15.00;;;13.20;99.90;;;;;;7406711;19;19918;-89
2022/10/29 07:46:32;;;;;;;64.60;13.73;;;13.20;99.90;;;;;;7406694;19;20483;-89
2022/10/29 07:49:01;;;;;;;87.57;16.65;;;13.30;99.90;;;;;;7407026;19;19914;-89
2022/10/29 07:51:29;;;;;;;63.03;12.63;;;13.30;99.90;;;;;;7405842;19;19915;-89
2022/10/29 07:53:58;;;;;;;69.93;14.32;;;13.30;99.90;;;;;;7406664;19;19914;-88
2022/10/29 07:56:27;;;;;;;40.88;11.32;;;13.30;99.90;;;;;;7405859;19;19922;-88
2022/10/29 07:58:56;;;;;;;80.03;15.70;;;13.30;99.90;;;;;;7406400;19;19918;-89
2022/10/29 08:01:28;;;;;;;67.55;13.82;;;13.40;99.90;;;;;;7406169;19;19914;-89
2022/10/29 08:03:57;;;;;;;102.60;18.27;;;13.40;99.90;;;;;;7405979;19;20346;-89
2022/10/29 08:06:26;;;;;;;121.90;16.42;;;13.50;99.90;;;;;;7406473;19;19914;-89
2022/10/29 08:08:55;;;;;;;;;;;13.50;99.90;;;;;;7408285;19;19919;-89
2022/10/29 08:11:27;;;;;;;75.95;13.23;;;13.50;99.90;;;;;;7406352;19;20080;-89
2022/10/29 08:13:56;;;;;;;80.70;16.88;;;13.50;99.90;;;;;;7405907;19;19914;-89
2022/10/29 08:16:27;;;;;;;68.60;14.75;;;13.60;99.90;;;;;;7405345;19;19918;-89
2022/10/29 08:18:56;;;;;;;90.63;16.38;;;13.60;99.90;;;;;;7405445;19;19927;-89
2022/10/29 08:21:25;;;;;;;69.80;14.43;;;13.60;99.90;;;;;;7405741;19;19918;-89
2022/10/29 08:23:55;;;;;;;108.18;16.70;;;13.60;99.90;;;;;;7405228;19;20267;-88
2022/10/29 08:26:24;;;;;;;92.40;16.58;;;13.60;99.90;;;;;;7405443;19;19915;-88
2022/10/29 08:28:53;;;;;;;118.03;20.48;;;13.70;99.90;;;;;;7405253;19;20331;-89
2022/10/29 08:31:21;;;;;;;112.20;18.30;;;13.70;99.90;;;;;;7405539;19;19925;-88
2022/10/29 08:33:53;;;;;;;86.35;16.45;;;13.70;99.90;;;;;;7404059;19;20339;-89
2022/10/29 08:36:22;;;;;;;116.32;20.52;;;13.70;99.90;;;;;;7404884;19;19922;-89
2022/10/29 08:38:51;;;;;;;78.38;16.73;;;13.70;99.90;;;;;;7404125;19;19971;-89
2022/10/29 08:41:40;;;;;;;77.22;17.85;;;13.80;99.90;;;;;;7408777;19;19947;-89
2022/10/29 08:44:46;;;;;;;96.43;21.08;;;13.80;99.90;;;;;;7405402;19;19927;-89
2022/10/29 08:47:19;;;;;;;40.13;13.80;;;13.90;99.90;;;;;;7405048;19;19973;-89
2022/10/29 08:50:01;;;;;;;45.80;16.30;;;14.00;99.90;;;;;;7404469;19;19935;-90
2022/10/29 08:52:33;;;;;;;49.95;16.67;;;14.00;99.90;;;;;;7403547;19;19922;-89
2022/10/29 08:55:08;;;;;;;44.15;15.35;;;14.10;99.90;;;;;;7405056;19;19911;-89
2022/10/29 08:57:43;;;;;;;42.50;14.02;;;14.10;99.90;;;;;;7403933;19;19919;-89
2022/10/29 09:00:17;;;;;;;47.50;15.73;;;14.20;99.90;;;;;;7404319;19;20245;-89
2022/10/29 09:02:46;;;;;;;42.40;15.13;;;14.30;99.90;;;;;;7404428;19;20077;-89
2022/10/29 09:05:22;;;;;;;48.00;18.80;;;14.30;99.90;;;;;;7404281;19;20337;-89
2022/10/29 09:08:05;;;;;;;40.35;17.08;;;14.30;99.90;;;;;;7404453;19;19919;-89
2022/10/29 09:10:43;;;;;;;35.97;14.27;;;14.40;99.90;;;;;;7404122;19;19919;-90
2022/10/29 09:13:29;;;;;;;35.47;12.77;;;14.40;99.90;;;;;;7404399;19;20356;-89
2022/10/29 09:16:22;;;;;;;38.70;15.23;;;14.50;99.90;;;;;;7404261;19;20011;-89
2022/10/29 09:19:25;;;;;;;34.85;13.73;;;14.50;99.90;;;;;;7401823;19;20258;-89
2022/10/29 09:22:04;;;;;;;28.38;13.02;;;14.50;99.90;;;;;;7401389;19;19978;-88
2022/10/29 09:24:41;;;;;;;24.77;12.80;;;14.50;99.90;;;;;;7403596;19;19970;-88
2022/10/29 09:27:17;;;;;;;28.80;14.35;;;14.60;99.90;;;;;;7403578;19;19988;-88
2022/10/29 09:30:00;;;;;;;36.88;15.63;;;14.60;99.90;;;;;;7403920;19;19915;-89
2022/10/29 09:32:35;;;;;;;27.30;10.30;;;14.70;99.90;;;;;;7403185;19;19927;-89
2022/10/29 09:35:06;;;;;;;30.65;13.48;;;14.80;99.90;;;;;;7403321;19;19922;-88
2022/10/29 09:37:47;;;;;;;25.23;10.88;;;14.80;99.90;;;;;;7400886;19;19982;-88
2022/10/29 09:40:24;;;;;;;29.27;12.05;;;14.90;99.90;;;;;;7407686;19;19925;-88
2022/10/29 09:42:54;;;;;;;26.58;11.63;;;14.90;99.90;;;;;;7403031;19;19918;-89
2022/10/29 09:45:31;;;;;;;23.15;10.88;;;14.80;99.90;;;;;;7403273;19;19987;-88
2022/10/29 09:48:09;;;;;;;25.42;11.75;;;14.80;99.90;;;;;;7402969;19;20296;-88
2022/10/29 09:50:45;;;;;;;26.80;11.52;;;14.80;99.90;;;;;;7402656;19;19910;-88
2022/10/29 09:53:16;;;;;;;28.75;11.10;;;14.80;99.90;;;;;;7400744;19;19953;-88
2022/10/29 09:55:52;;;;;;;25.25;12.20;;;14.80;99.90;;;;;;7403025;19;19994;-90
2022/10/29 09:58:23;;;;;;;22.48;10.23;;;14.70;99.90;;;;;;7401028;19;19918;-89
2022/10/29 10:00:53;;;;;;;26.55;12.32;;;14.70;99.90;;;;;;7405882;19;19927;-88
2022/10/29 10:03:25;;;;;;;;;;;14.80;99.90;;;;;;7412232;19;19922;-88
2022/10/29 10:06:05;;;;;;;18.38;8.40;;;14.80;99.90;;;;;;7409297;19;19915;-88
2022/10/29 10:08:57;;;;;;;26.75;11.88;;;14.80;99.90;;;;;;7409467;19;19926;-88
2022/10/29 10:11:29;;;;;;;29.10;11.73;;;14.80;99.90;;;;;;7409056;19;19911;-89
2022/10/29 10:14:01;;;;;;;24.27;13.85;;;14.80;99.90;;;;;;7409236;19;19919;-88
2022/10/29 10:16:31;;;;;;;27.20;13.02;;;14.80;99.90;;;;;;7409243;19;19921;-88
2022/10/29 10:19:00;;;;;;;25.95;14.20;;;14.80;99.90;;;;;;7406660;19;19915;-88
2022/10/29 10:21:31;;;;;;;28.75;11.88;;;14.80;99.90;;;;;;7410231;19;19939;-88
2022/10/29 10:24:02;;;;;;;29.75;12.60;;;14.90;99.90;;;;;;7407463;19;19919;-88
2022/10/29 10:26:38;;;;;;;31.92;14.57;;;14.90;99.90;;;;;;7408965;19;19957;-88
2022/10/29 10:29:13;;;;;;;28.10;12.73;;;14.90;99.90;;;;;;7408940;19;19919;-88
2022/10/29 10:31:42;;;;;;;29.33;11.85;;;15.00;99.90;;;;;;7408849;19;19914;-88
2022/10/29 10:34:17;;;;;;;22.92;12.20;;;15.20;99.90;;;;;;7406471;19;19996;-89
2022/10/29 10:36:50;;;;;;;25.70;13.20;;;15.30;99.90;;;;;;7407176;19;19918;-88
2022/10/29 10:39:28;;;;;;;28.50;15.13;;;15.40;99.90;;;;;;7406132;19;19921;-88
2022/10/29 10:41:59;;;;;;;32.00;14.48;;;15.50;99.90;;;;;;7408380;19;20361;-89
2022/10/29 10:44:30;;;;;;;16.63;7.95;;;15.60;99.90;;;;;;7408334;19;19911;-89
2022/10/29 10:47:06;;;;;;;24.02;12.10;;;15.70;99.90;;;;;;7408821;19;19978;-89
2022/10/29 10:49:37;;;;;;;24.00;11.45;;;15.80;99.90;;;;;;7407655;19;19925;-89
2022/10/29 10:52:15;;;;;;;21.30;11.43;;;15.80;99.90;;;;;;7407651;19;19978;-89
2022/10/29 10:54:56;;;;;;;24.05;11.93;;;15.90;99.90;;;;;;7406465;19;20285;-89
2022/10/29 10:57:28;;;;;;;21.67;10.73;;;15.90;99.90;;;;;;7407314;19;20241;-89
2022/10/29 11:00:03;;;;;;;23.98;11.48;;;16.00;99.90;;;;;;7408149;19;19941;-88
2022/10/29 11:02:40;;;;;;;27.35;13.88;;;16.00;99.90;;;;;;7407998;19;19935;-88
2022/10/29 11:05:18;;;;;;;22.92;11.30;;;16.10;99.90;;;;;;7408148;19;20342;-89
2022/10/29 11:07:53;;;;;;;21.67;10.07;;;16.20;99.90;;;;;;7407615;19;20348;-89
2022/10/29 11:10:32;;;;;;;24.60;10.93;;;16.30;99.90;;;;;;7407512;19;19941;-88
2022/10/29 11:13:08;;;;;;;21.63;10.85;;;16.30;99.90;;;;;;7405936;19;19933;-89
2022/10/29 11:15:42;;;;;;;23.65;10.25;;;16.50;99.90;;;;;;7407551;19;19925;-89
2022/10/29 11:18:19;;;;;;;25.27;9.95;;;16.60;99.90;;;;;;7406685;19;19915;-88
2022/10/29 11:20:55;;;;;;;23.25;10.20;;;16.80;99.90;;;;;;7406741;19;19931;-90
2022/10/29 11:23:33;;;;;;;18.17;8.60;;;16.80;99.90;;;;;;7407701;19;19918;-88
2022/10/29 11:26:10;;;;;;;20.60;9.50;;;16.90;99.90;;;;;;7407199;19;19923;-89
2022/10/29 11:28:42;;;;;;;19.90;9.43;;;17.00;99.90;;;;;;7407121;19;19998;-89
2022/10/29 11:31:18;;;;;;;20.95;10.00;;;17.00;99.90;;;;;;7406927;19;19914;-88
2022/10/29 11:33:54;;;;;;;20.05;9.32;;;17.10;99.90;;;;;;7405498;19;19935;-89
2022/10/29 11:36:25;;;;;;;19.55;9.25;;;17.20;99.90;;;;;;7409055;19;19966;-89
2022/10/29 11:39:01;;;;;;;23.40;11.90;;;17.30;99.90;;;;;;7405626;19;19922;-88
2022/10/29 11:41:40;;;;;;;18.08;8.00;;;17.40;99.90;;;;;;7406933;19;19922;-89
2022/10/29 11:44:13;;;;;;;15.02;6.78;;;17.40;99.90;;;;;;7406790;19;19925;-89
2022/10/29 11:46:56;;;;;;;17.52;7.35;;;17.60;99.90;;;;;;7406620;19;19915;-89
2022/10/29 11:49:42;;;;;;;15.80;7.43;;;17.70;99.90;;;;;;7406553;19;20132;-88
2022/10/29 11:52:15;;;;;;;21.02;7.88;;;17.90;99.90;;;;;;7406161;19;20339;-88
2022/10/29 11:54:54;;;;;;;16.75;8.13;;;18.00;99.90;;;;;;7406537;19;19926;-88
2022/10/29 11:57:33;;;;;;;14.73;7.25;;;18.20;99.90;;;;;;7406739;19;19915;-88
2022/10/29 12:00:12;;;;;;;22.70;8.10;;;18.30;99.90;;;;;;7406414;19;19914;-89
2022/10/29 12:03:07;;;;;;;14.15;7.25;;;18.20;99.90;;;;;;7406622;19;19936;-89
2022/10/29 12:05:43;;;;;;;17.27;6.78;;;18.20;99.90;;;;;;7406151;19;20341;-88
2022/10/29 12:08:27;;;;;;;15.88;6.55;;;18.30;99.90;;;;;;7406165;19;19925;-89
2022/10/29 12:11:04;;;;;;;16.83;6.65;;;18.30;99.90;;;;;;7406323;19;19918;-89
2022/10/29 12:13:48;;;;;;;14.98;6.70;;;18.40;99.90;;;;;;7404251;19;20259;-89
2022/10/29 12:16:30;;;;;;;12.35;8.02;;;18.30;99.90;;;;;;7405635;19;19911;-88
2022/10/29 12:19:04;;;;;;;15.15;7.03;;;18.30;99.90;;;;;;7403956;19;19926;-89
2022/10/29 12:21:41;;;;;;;17.02;7.47;;;18.20;99.90;;;;;;7405473;19;19911;-88
2022/10/29 12:24:26;;;;;;;18.95;7.10;;;18.20;99.90;;;;;;7405027;19;20325;-89
2022/10/29 12:27:01;;;;;;;14.00;6.95;;;18.30;99.90;;;;;;7405869;19;19922;-89
2022/10/29 12:29:43;;;;;;;17.42;7.43;;;18.30;99.90;;;;;;7405508;19;20329;-88
2022/10/29 12:32:19;;;;;;;16.38;7.32;;;18.40;99.90;;;;;;7405151;19;19914;-89
2022/10/29 12:34:54;;;;;;;20.95;7.20;;;18.40;99.90;;;;;;7407641;19;20270;-89
2022/10/29 12:37:34;;;;;;;18.00;8.90;;;18.50;99.90;;;;;;7405858;19;19925;-89
2022/10/29 12:40:13;;;;;;;15.55;8.48;;;18.50;99.90;;;;;;7405364;19;19916;-89
2022/10/29 12:42:43;;;;;;;15.38;6.80;;;18.50;99.90;;;;;;7405631;19;19911;-88
2022/10/29 12:45:29;;;;;;;19.60;7.88;;;18.50;99.90;;;;;;7404796;19;20359;-89
2022/10/29 12:48:07;;;;;;;14.55;6.30;;;18.50;99.90;;;;;;7404763;19;19921;-89
2022/10/29 12:50:45;;;;;;;18.63;7.70;;;18.70;99.90;;;;;;7404672;19;20482;-89
2022/10/29 12:53:26;;;;;;;18.42;7.80;;;18.80;99.90;;;;;;7402199;19;19930;-88
2022/10/29 12:55:56;;;;;;;17.55;8.73;;;18.90;99.90;;;;;;7404948;19;19918;-89
2022/10/29 12:58:51;;;;;;;19.95;7.75;;;18.80;99.90;;;;;;7403860;19;19910;-88
2022/10/29 13:01:48;;;;;;;18.50;8.27;;;18.90;99.90;;;;;;7404396;19;20289;-89
2022/10/29 13:04:27;;;;;;;17.95;8.75;;;18.80;99.90;;;;;;7404337;19;20237;-89
2022/10/29 13:07:02;;;;;;;17.67;7.15;;;18.80;99.90;;;;;;7404341;19;19911;-89